Time;durP1;ratioP1;P1;durP2;ratioP2;P2;SDS_P1;SDS_P2;PMS_P1;PMS_P2;Temp;Humidity;BMP_temperature;BMP_pressure;BME280_temperature;BME280_humidity;BME280_pressure;Samples;Min_cycle;Max_cycle;Signal;HPM_P1;HPM_P2
2022/02/13 05:02:40;;;;;;;2.90;2.80;;;1.00;99.90;;;;;;4907346;29;20238;-70
2022/02/13 05:05:07;;;;;;;2.92;2.67;;;1.00;99.90;;;;;;4907472;29;20243;-71
2022/02/13 05:07:34;;;;;;;3.88;3.63;;;1.00;99.90;;;;;;4910388;29;20330;-70
2022/02/13 05:10:01;;;;;;;4.55;4.22;;;0.90;99.90;;;;;;4905918;29;20210;-69
2022/02/13 05:12:28;;;;;;;4.20;3.72;;;0.90;99.90;;;;;;4912645;29;20293;-72
2022/02/13 05:14:54;;;;;;;7.82;2.80;;;0.90;99.90;;;;;;4908315;29;20203;-70
2022/02/13 05:17:22;;;;;;;3.33;3.13;;;0.90;99.90;;;;;;4901104;29;20214;-70
2022/02/13 05:19:50;;;;;;;3.00;2.75;;;0.90;99.90;;;;;;4906114;29;20854;-70
2022/02/13 05:22:17;;;;;;;4.28;3.80;;;1.00;99.90;;;;;;4912508;29;20309;-68
2022/02/13 05:24:45;;;;;;;3.40;3.08;;;1.00;99.90;;;;;;4911353;29;20218;-69
2022/02/13 05:27:13;;;;;;;5.53;4.22;;;1.00;99.90;;;;;;4910927;29;20229;-69
2022/02/13 05:29:39;;;;;;;3.40;3.25;;;1.00;99.90;;;;;;4913151;29;20254;-69
2022/02/13 05:32:07;;;;;;;5.97;2.80;;;1.00;99.90;;;;;;4912361;29;20231;-69
2022/02/13 05:34:34;;;;;;;2.92;2.75;;;1.00;99.90;;;;;;4912177;29;20274;-69
2022/02/13 05:37:02;;;;;;;5.60;3.53;;;1.00;99.90;;;;;;4905759;29;20202;-69
2022/02/13 05:39:28;;;;;;;5.35;3.10;;;0.90;99.90;;;;;;4908380;29;20211;-69
2022/02/13 05:41:55;;;;;;;3.40;3.15;;;0.90;99.90;;;;;;4906341;29;20321;-69
2022/02/13 05:44:21;;;;;;;3.33;3.13;;;0.90;99.90;;;;;;4911770;29;20660;-69
2022/02/13 05:46:48;;;;;;;3.78;2.70;;;0.90;99.90;;;;;;4912863;29;20234;-69
2022/02/13 05:49:15;;;;;;;4.53;3.00;;;0.90;99.90;;;;;;4905499;29;20211;-69
2022/02/13 05:51:41;;;;;;;3.45;3.25;;;0.90;99.90;;;;;;4902060;29;20223;-69
2022/02/13 05:54:10;;;;;;;5.70;3.70;;;0.90;99.90;;;;;;4907247;29;20354;-69
2022/02/13 05:56:37;;;;;;;3.55;3.22;;;1.00;99.90;;;;;;4907220;29;20207;-70
2022/02/13 05:59:03;;;;;;;8.50;3.03;;;1.00;99.90;;;;;;4901133;29;20207;-70
2022/02/13 06:01:30;;;;;;;3.45;3.03;;;0.90;99.90;;;;;;4909827;29;20246;-69
2022/02/13 06:03:57;;;;;;;3.28;3.08;;;0.90;99.90;;;;;;4905897;29;20235;-69
2022/02/13 06:06:23;;;;;;;5.07;3.63;;;0.90;99.90;;;;;;4908315;29;20219;-67
2022/02/13 06:08:50;;;;;;;7.43;3.47;;;0.90;99.90;;;;;;4906383;29;20206;-69
2022/02/13 06:11:18;;;;;;;3.42;3.13;;;0.90;99.90;;;;;;4906210;29;20231;-69
2022/02/13 06:13:44;;;;;;;4.53;2.70;;;0.90;99.90;;;;;;4911632;29;20278;-69
2022/02/13 06:16:11;;;;;;;4.32;2.58;;;0.90;99.90;;;;;;4905688;29;20295;-69
2022/02/13 06:18:38;;;;;;;2.95;2.75;;;0.90;99.90;;;;;;4914619;29;20206;-69
2022/02/13 06:21:05;;;;;;;3.30;2.80;;;0.90;99.90;;;;;;4909528;29;20227;-69
2022/02/13 06:23:32;;;;;;;6.03;3.30;;;0.90;99.90;;;;;;4914445;29;20240;-69
2022/02/13 06:25:59;;;;;;;4.13;3.75;;;0.90;99.90;;;;;;4911368;29;20215;-68
2022/02/13 06:28:27;;;;;;;3.10;2.80;;;0.90;99.90;;;;;;4908718;29;20317;-69
2022/02/13 06:30:54;;;;;;;4.07;3.72;;;0.90;99.90;;;;;;4910698;29;20234;-70
2022/02/13 06:33:20;;;;;;;7.68;3.60;;;0.90;99.90;;;;;;4914637;29;20215;-68
2022/02/13 06:35:47;;;;;;;4.53;3.15;;;0.90;99.90;;;;;;4913841;29;20206;-70
2022/02/13 06:38:15;;;;;;;8.43;3.40;;;0.90;99.90;;;;;;4914833;29;20273;-69
2022/02/13 06:40:42;;;;;;;3.70;2.70;;;0.90;99.90;;;;;;4908449;29;20299;-69
2022/02/13 06:43:09;;;;;;;6.30;3.53;;;0.90;99.90;;;;;;4914675;29;20234;-69
2022/02/13 06:45:37;;;;;;;4.60;4.22;;;0.90;99.90;;;;;;4915675;29;20403;-69
2022/02/13 06:48:05;;;;;;;3.15;2.83;;;0.90;99.90;;;;;;4908888;29;20287;-68
2022/02/13 06:50:32;;;;;;;3.80;2.85;;;0.90;99.90;;;;;;4914324;29;20317;-69
2022/02/13 06:52:59;;;;;;;4.72;3.47;;;0.90;99.90;;;;;;4905788;29;20270;-69
2022/02/13 06:55:26;;;;;;;3.85;3.38;;;0.90;99.90;;;;;;4909622;29;20266;-69
2022/02/13 06:57:52;;;;;;;4.05;3.40;;;0.90;99.90;;;;;;4907738;29;20203;-69
2022/02/13 07:00:20;;;;;;;4.72;3.67;;;0.90;99.90;;;;;;4912775;29;20202;-69
2022/02/13 07:02:48;;;;;;;3.53;3.28;;;0.90;99.90;;;;;;4913011;29;20274;-70
2022/02/13 07:05:16;;;;;;;3.33;3.13;;;1.00;99.90;;;;;;4906726;29;20211;-69
2022/02/13 07:07:43;;;;;;;3.92;3.47;;;1.00;99.90;;;;;;4913449;29;20274;-68
2022/02/13 07:10:11;;;;;;;4.03;3.38;;;1.00;99.90;;;;;;4906596;29;20215;-69
2022/02/13 07:12:38;;;;;;;5.47;3.30;;;1.10;99.90;;;;;;4904993;29;20222;-69
2022/02/13 07:15:06;;;;;;;3.97;3.22;;;1.20;99.90;;;;;;4904602;29;20223;-68
2022/02/13 07:17:33;;;;;;;3.47;3.28;;;1.20;99.90;;;;;;4914288;29;20207;-68
2022/02/13 07:20:01;;;;;;;3.75;3.45;;;1.30;99.90;;;;;;4906672;29;20206;-67
2022/02/13 07:22:28;;;;;;;5.00;3.55;;;1.30;99.90;;;;;;4911739;29;20285;-69
2022/02/13 07:24:55;;;;;;;4.72;4.43;;;1.40;99.90;;;;;;4907279;29;20211;-67
2022/02/13 07:27:21;;;;;;;4.18;3.88;;;1.40;99.90;;;;;;4907084;29;20289;-67
2022/02/13 07:29:48;;;;;;;5.15;3.45;;;1.40;99.90;;;;;;4911905;29;20683;-67
2022/02/13 07:32:15;;;;;;;4.32;3.67;;;1.50;99.90;;;;;;4910626;29;20289;-68
2022/02/13 07:34:41;;;;;;;5.38;4.13;;;1.60;99.90;;;;;;4909257;29;20262;-66
2022/02/13 07:37:09;;;;;;;3.10;2.97;;;1.60;99.90;;;;;;4913707;29;20207;-67
2022/02/13 07:39:38;;;;;;;3.60;3.45;;;1.70;99.90;;;;;;4903359;29;20218;-68
2022/02/13 07:42:05;;;;;;;4.15;3.85;;;1.70;99.90;;;;;;4905815;29;20253;-67
2022/02/13 07:44:32;;;;;;;6.50;4.05;;;1.80;99.90;;;;;;4907688;29;20206;-67
2022/02/13 07:46:58;;;;;;;3.92;3.63;;;1.90;99.90;;;;;;4907910;29;20211;-69
2022/02/13 07:49:25;;;;;;;3.38;3.15;;;2.00;99.90;;;;;;4909961;29;20248;-69
2022/02/13 07:51:52;;;;;;;3.05;2.85;;;2.00;99.90;;;;;;4912618;29;20258;-68
2022/02/13 07:54:20;;;;;;;4.45;4.15;;;2.10;99.90;;;;;;4906908;29;20213;-69
2022/02/13 07:56:47;;;;;;;2.50;2.30;;;2.10;99.90;;;;;;4912045;29;20225;-69
2022/02/13 07:59:13;;;;;;;3.30;3.00;;;2.10;99.90;;;;;;4908304;29;20203;-67
2022/02/13 08:01:40;;;;;;;3.80;3.50;;;2.20;99.90;;;;;;4906007;29;20285;-68
2022/02/13 08:04:07;;;;;;;5.20;3.22;;;2.20;99.90;;;;;;4910558;29;20570;-68
2022/02/13 08:06:33;;;;;;;4.07;3.00;;;2.30;99.90;;;;;;4904037;29;20215;-68
2022/02/13 08:09:00;;;;;;;5.43;3.20;;;2.30;99.90;;;;;;4907774;29;20237;-68
2022/02/13 08:11:28;;;;;;;4.80;4.40;;;2.40;99.90;;;;;;4908533;29;20219;-69
2022/02/13 08:13:56;;;;;;;3.65;3.20;;;2.40;99.90;;;;;;4909836;29;20220;-68
2022/02/13 08:16:22;;;;;;;6.55;4.25;;;2.60;99.90;;;;;;4912543;29;20211;-68
2022/02/13 08:18:50;;;;;;;3.15;2.95;;;2.90;99.90;;;;;;4913882;29;20215;-68
2022/02/13 08:21:17;;;;;;;3.33;3.13;;;3.10;99.90;;;;;;4905308;29;20222;-68
2022/02/13 08:23:43;;;;;;;8.52;4.03;;;3.10;99.90;;;;;;4910255;29;20287;-68
2022/02/13 08:26:10;;;;;;;3.30;3.10;;;3.20;99.90;;;;;;4907387;29;20210;-67
2022/02/13 08:28:38;;;;;;;4.25;3.90;;;3.50;99.90;;;;;;4913675;29;20317;-68
2022/02/13 08:31:05;;;;;;;3.42;3.22;;;3.50;99.90;;;;;;4902917;29;20293;-68
2022/02/13 08:33:32;;;;;;;4.18;3.88;;;3.50;99.90;;;;;;4912298;29;20594;-68
2022/02/13 08:35:59;;;;;;;5.63;3.63;;;3.40;99.90;;;;;;4907933;29;20211;-68
2022/02/13 08:38:26;;;;;;;4.32;3.72;;;3.30;99.90;;;;;;4907636;29;20219;-69
2022/02/13 08:40:53;;;;;;;3.58;3.25;;;3.30;99.90;;;;;;4907961;29;20227;-69
2022/02/13 08:43:19;;;;;;;5.03;3.13;;;3.20;99.90;;;;;;4909627;29;20293;-67
2022/02/13 08:45:50;;;;;;;4.80;3.47;;;3.20;99.90;;;;;;4903549;29;20241;-68
2022/02/13 08:48:18;;;;;;;4.07;3.58;;;3.20;99.90;;;;;;4908221;29;20231;-67
2022/02/13 08:50:45;;;;;;;4.50;3.63;;;3.30;99.90;;;;;;4906526;29;20579;-68
2022/02/13 08:53:12;;;;;;;19.25;9.20;;;3.30;99.90;;;;;;4911552;29;20244;-68
2022/02/13 08:55:39;;;;;;;203.23;70.95;;;3.40;99.90;;;;;;4906286;29;20218;-68
2022/02/13 08:58:06;;;;;;;41.53;18.48;;;3.40;99.90;;;;;;4905827;29;20625;-67
2022/02/13 09:00:33;;;;;;;32.88;16.42;;;3.40;99.90;;;;;;4905109;29;20296;-68
2022/02/13 09:03:01;;;;;;;92.05;23.85;;;3.50;99.90;;;;;;4910243;29;20215;-67
2022/02/13 09:05:28;;;;;;;29.95;13.40;;;3.60;99.90;;;;;;4904986;29;20211;-67
2022/02/13 09:07:54;;;;;;;27.98;11.38;;;3.70;99.90;;;;;;4914250;29;20222;-67
2022/02/13 09:10:21;;;;;;;44.40;17.92;;;3.80;99.90;;;;;;4906442;29;20207;-67
2022/02/13 09:12:48;;;;;;;22.08;11.98;;;3.90;99.90;;;;;;4910322;29;20213;-67
2022/02/13 09:15:16;;;;;;;9.98;6.53;;;3.90;99.90;;;;;;4904059;29;20206;-68
2022/02/13 09:17:43;;;;;;;5.43;4.80;;;4.00;99.90;;;;;;4910899;29;20207;-67
2022/02/13 09:20:12;;;;;;;12.30;5.53;;;4.10;99.90;;;;;;4901981;29;20210;-68
2022/02/13 09:22:39;;;;;;;8.55;6.43;;;4.10;99.90;;;;;;4908853;29;20720;-68
2022/02/13 09:25:07;;;;;;;3.63;3.42;;;4.20;99.90;;;;;;4901640;29;20211;-68
2022/02/13 09:27:34;;;;;;;10.63;7.18;;;4.30;99.90;;;;;;4908020;29;20203;-68
2022/02/13 09:30:02;;;;;;;5.70;5.10;;;4.40;99.90;;;;;;4907227;29;20206;-68
2022/02/13 09:32:29;;;;;;;5.88;5.22;;;4.40;99.90;;;;;;4900506;29;20230;-68
2022/02/13 09:34:55;;;;;;;5.65;5.15;;;4.40;99.90;;;;;;4907079;29;20219;-69
2022/02/13 09:37:24;;;;;;;5.55;5.07;;;4.50;99.90;;;;;;4905184;29;20239;-67
2022/02/13 09:39:51;;;;;;;4.90;4.50;;;4.50;99.90;;;;;;4913145;29;20901;-68
2022/02/13 09:42:20;;;;;;;3.13;3.03;;;4.60;99.90;;;;;;4910966;29;20230;-68
2022/02/13 09:44:46;;;;;;;5.88;5.20;;;4.70;99.90;;;;;;4908443;29;20211;-68
2022/02/13 09:47:14;;;;;;;2.42;2.33;;;4.70;99.90;;;;;;4906030;29;20211;-69
2022/02/13 09:49:41;;;;;;;3.45;3.15;;;4.90;99.90;;;;;;4909463;29;20610;-69
2022/02/13 09:52:09;;;;;;;3.70;3.47;;;5.00;99.90;;;;;;4913901;29;20626;-68
2022/02/13 09:54:38;;;;;;;3.10;2.90;;;5.00;99.90;;;;;;4913972;29;20250;-69
2022/02/13 09:59:53;;;;;;;3.53;3.22;;;5.10;99.90;;;;;;4916580;29;20213;-68
2022/02/13 10:02:38;;;;;;;3.15;2.95;;;5.10;99.90;;;;;;4916903;29;20234;-69
2022/02/13 10:05:07;;;;;;;3.58;3.35;;;5.20;99.90;;;;;;4916296;29;20278;-68
2022/02/13 10:07:34;;;;;;;5.85;4.82;;;5.30;99.90;;;;;;4916877;29;20640;-69
2022/02/13 10:10:05;;;;;;;8.13;4.93;;;5.40;99.90;;;;;;4914420;29;20213;-68
2022/02/13 10:12:38;;;;;;;8.25;7.45;;;5.40;99.90;;;;;;4917024;29;20230;-68
2022/02/13 10:15:29;;;;;;;10.38;4.75;;;5.60;99.90;;;;;;4916632;29;20639;-67
2022/02/13 10:17:57;;;;;;;5.05;3.00;;;5.60;99.90;;;;;;4917069;29;20526;-68
2022/02/13 10:20:26;;;;;;;2.80;2.60;;;5.70;99.90;;;;;;4915450;29;20290;-68
2022/02/13 10:22:53;;;;;;;3.92;3.70;;;5.80;99.90;;;;;;4916568;29;20519;-67
2022/02/13 10:25:21;;;;;;;3.88;3.60;;;5.80;99.90;;;;;;4916059;29;20219;-68
2022/02/13 10:27:49;;;;;;;4.70;4.30;;;5.90;99.90;;;;;;4917008;29;20203;-68
2022/02/13 10:30:34;;;;;;;5.00;4.32;;;6.00;99.90;;;;;;4916750;29;20269;-68
2022/02/13 10:33:15;;;;;;;3.75;3.45;;;6.10;99.90;;;;;;4916730;29;20277;-69
2022/02/13 10:35:42;;;;;;;5.95;5.55;;;6.00;99.90;;;;;;4908804;29;20576;-68
2022/02/13 10:38:09;;;;;;;5.20;3.47;;;6.10;99.90;;;;;;4916545;29;20247;-68
2022/02/13 10:40:38;;;;;;;3.80;3.50;;;6.10;99.90;;;;;;4916347;29;20226;-68
2022/02/13 10:43:07;;;;;;;4.63;4.32;;;6.10;99.90;;;;;;4916378;29;20211;-68
2022/02/13 10:45:35;;;;;;;4.22;3.95;;;6.10;99.90;;;;;;4916291;29;20237;-68
2022/02/13 10:48:04;;;;;;;4.85;4.38;;;6.20;99.90;;;;;;4915647;29;20270;-69
2022/02/13 10:50:32;;;;;;;3.42;3.10;;;6.20;99.90;;;;;;4914404;29;20215;-67
2022/02/13 10:53:01;;;;;;;4.20;3.80;;;6.20;99.90;;;;;;4915464;29;20215;-69
2022/02/13 10:55:30;;;;;;;4.07;3.88;;;6.20;99.90;;;;;;4916017;29;20297;-67
2022/02/13 10:57:59;;;;;;;6.60;6.10;;;6.30;99.90;;;;;;4911694;29;20214;-67
2022/02/13 11:00:29;;;;;;;6.38;5.85;;;6.30;99.90;;;;;;4915180;29;20274;-68
2022/02/13 11:02:56;;;;;;;4.88;4.43;;;6.40;99.90;;;;;;4914820;29;20314;-66
2022/02/13 11:05:26;;;;;;;4.97;4.50;;;6.50;99.90;;;;;;4915115;29;20207;-68
2022/02/13 11:07:59;;;;;;;4.30;3.90;;;6.60;99.90;;;;;;4899049;29;20637;-67
2022/02/13 11:10:29;;;;;;;6.15;4.20;;;6.60;99.90;;;;;;4910563;29;20226;-67
2022/02/13 11:12:59;;;;;;;3.58;3.45;;;6.70;99.90;;;;;;4915706;29;20214;-67
2022/02/13 11:15:29;;;;;;;3.30;2.95;;;6.70;99.90;;;;;;4915704;29;20202;-68
2022/02/13 11:17:59;;;;;;;5.57;5.03;;;6.70;99.90;;;;;;4915760;29;20265;-68
2022/02/13 11:20:26;;;;;;;3.17;3.08;;;6.80;99.90;;;;;;4913892;29;20345;-68
2022/02/13 11:22:53;;;;;;;3.17;2.85;;;6.80;99.90;;;;;;4915187;29;20203;-67
2022/02/13 11:25:51;;;;;;;4.70;4.28;;;6.80;99.90;;;;;;4915455;29;20298;-68
2022/02/13 11:28:24;;;;;;;3.63;3.33;;;6.90;99.90;;;;;;4914393;29;20230;-68
2022/02/13 11:30:51;;;;;;;6.68;3.50;;;6.90;99.90;;;;;;4915085;29;20241;-68
2022/02/13 11:33:48;;;;;;;2.15;2.05;;;6.80;99.90;;;;;;4914595;29;21031;-68
2022/02/13 11:36:15;;;;;;;5.00;4.22;;;6.90;99.90;;;;;;4874794;29;20579;-68
2022/02/13 11:38:56;;;;;;;4.88;4.57;;;6.90;99.90;;;;;;4905422;29;20206;-67
2022/02/13 11:42:10;;;;;;;4.35;4.00;;;6.90;99.90;;;;;;4915226;29;20231;-67
2022/02/13 11:44:43;;;;;;;4.72;4.32;;;7.00;99.90;;;;;;4914180;29;20214;-67
2022/02/13 11:47:12;;;;;;;4.80;4.40;;;7.10;99.90;;;;;;4901139;29;20275;-67
2022/02/13 11:50:19;;;;;;;4.90;4.60;;;7.00;99.90;;;;;;4906126;29;20226;-67
2022/02/13 11:52:54;;;;;;;7.05;6.40;;;7.00;99.90;;;;;;4913968;29;20691;-67
2022/02/13 11:55:23;;;;;;;5.63;4.72;;;7.00;99.90;;;;;;4915019;29;20217;-68
2022/02/13 11:57:57;;;;;;;8.05;7.22;;;7.00;99.90;;;;;;4914379;29;20253;-67
2022/02/13 12:00:50;;;;;;;4.70;4.50;;;7.10;99.90;;;;;;4914291;29;20198;-67
2022/02/13 12:03:22;;;;;;;5.97;5.30;;;7.10;99.90;;;;;;4899663;29;20214;-67
2022/02/13 12:06:13;;;;;;;5.43;3.85;;;7.10;99.90;;;;;;4914175;29;20577;-67
2022/02/13 12:08:43;;;;;;;4.78;4.43;;;7.30;99.90;;;;;;4913429;29;20238;-67
2022/02/13 12:11:10;;;;;;;3.47;3.17;;;7.30;99.90;;;;;;4912382;29;20234;-66
2022/02/13 12:13:38;;;;;;;5.57;4.85;;;7.30;99.90;;;;;;4906293;29;20211;-68
2022/02/13 12:16:07;;;;;;;4.40;4.18;;;7.30;99.90;;;;;;4914388;29;20751;-68
2022/02/13 12:18:34;;;;;;;4.47;4.07;;;7.30;99.90;;;;;;4913639;29;20263;-68
2022/02/13 12:21:03;;;;;;;5.85;5.35;;;7.30;99.90;;;;;;4913838;29;20231;-68
2022/02/13 12:23:30;;;;;;;4.25;3.92;;;7.30;99.90;;;;;;4912857;29;20218;-68
2022/02/13 12:25:58;;;;;;;6.28;4.35;;;7.30;99.90;;;;;;4900975;29;20222;-68
2022/02/13 12:28:30;;;;;;;3.03;2.75;;;7.40;99.90;;;;;;4895559;29;20271;-68
2022/02/13 12:30:57;;;;;;;4.82;3.72;;;7.40;99.90;;;;;;4895399;29;20425;-67
2022/02/13 12:33:26;;;;;;;3.85;3.55;;;7.40;99.90;;;;;;4900767;29;20210;-69
2022/02/13 12:35:53;;;;;;;2.83;2.63;;;7.50;99.90;;;;;;4914119;29;20690;-66
2022/02/13 12:38:21;;;;;;;5.50;4.10;;;7.50;99.90;;;;;;4914513;29;20215;-68
2022/02/13 12:40:47;;;;;;;5.35;4.40;;;7.50;99.90;;;;;;4913008;29;20314;-68
2022/02/13 12:43:16;;;;;;;7.70;5.95;;;7.60;99.90;;;;;;4914160;29;20747;-67
2022/02/13 12:45:45;;;;;;;3.92;3.72;;;7.60;99.90;;;;;;4914337;29;20285;-68
2022/02/13 12:48:14;;;;;;;6.07;5.38;;;7.70;99.90;;;;;;4913184;29;20207;-68
2022/02/13 12:50:44;;;;;;;8.93;7.45;;;7.70;99.90;;;;;;4914002;29;20238;-67
2022/02/13 12:53:13;;;;;;;4.43;3.85;;;7.70;99.90;;;;;;4913579;29;20620;-67
2022/02/13 12:55:41;;;;;;;5.38;4.78;;;7.70;99.90;;;;;;4895352;29;20207;-67
2022/02/13 12:58:08;;;;;;;5.70;5.25;;;7.80;99.90;;;;;;4899977;29;20215;-67
2022/02/13 13:00:42;;;;;;;5.63;4.85;;;7.70;99.90;;;;;;4894806;29;20318;-68
2022/02/13 13:03:13;;;;;;;4.15;3.88;;;7.70;99.90;;;;;;4894841;29;20307;-68
2022/02/13 13:05:43;;;;;;;6.38;5.65;;;7.80;99.90;;;;;;4909670;29;20230;-67
2022/02/13 13:08:15;;;;;;;4.95;4.50;;;7.80;99.90;;;;;;4914311;29;20215;-69
2022/02/13 13:10:45;;;;;;;4.57;4.35;;;7.80;99.90;;;;;;4913726;29;20238;-68
2022/02/13 13:13:12;;;;;;;4.60;4.30;;;7.80;99.90;;;;;;4914228;29;20218;-67
2022/02/13 13:15:53;;;;;;;3.63;3.35;;;7.80;99.90;;;;;;4914157;29;20250;-67
2022/02/13 13:18:33;;;;;;;4.80;4.40;;;7.90;99.90;;;;;;4913735;29;20961;-67
2022/02/13 13:21:12;;;;;;;3.75;3.53;;;7.90;99.90;;;;;;4916019;29;20218;-69
2022/02/13 13:23:58;;;;;;;5.20;3.60;;;7.80;99.90;;;;;;4913636;29;20281;-68
2022/02/13 13:26:24;;;;;;;3.45;3.25;;;7.80;99.90;;;;;;4909997;29;20735;-67
2022/02/13 13:28:51;;;;;;;4.38;3.97;;;7.80;99.90;;;;;;4912458;29;20218;-68
2022/02/13 13:31:19;;;;;;;4.78;3.25;;;7.80;99.90;;;;;;4898587;29;20234;-69
2022/02/13 13:33:46;;;;;;;3.55;3.25;;;7.80;99.90;;;;;;4898578;29;20590;-69
2022/02/13 13:36:26;;;;;;;3.78;3.47;;;7.80;99.90;;;;;;4898484;29;20211;-67
2022/02/13 13:38:52;;;;;;;3.67;3.45;;;7.80;99.90;;;;;;4914238;29;20257;-67
2022/02/13 13:41:19;;;;;;;3.22;3.10;;;7.80;99.90;;;;;;4915981;29;20315;-68
2022/02/13 13:43:46;;;;;;;3.90;3.70;;;7.80;99.90;;;;;;4913076;29;20267;-68
2022/02/13 13:46:14;;;;;;;5.47;4.82;;;7.80;99.90;;;;;;4898768;29;20270;-68
2022/02/13 13:48:42;;;;;;;4.90;4.35;;;7.80;99.90;;;;;;4913956;29;20269;-67
2022/02/13 13:51:08;;;;;;;4.57;3.90;;;7.70;99.90;;;;;;4916453;29;20238;-69
2022/02/13 13:53:36;;;;;;;6.00;5.40;;;7.80;99.90;;;;;;4917295;29;20210;-68
2022/02/13 13:56:03;;;;;;;4.85;4.20;;;7.80;99.90;;;;;;4917195;29;20222;-67
2022/02/13 13:58:31;;;;;;;5.15;4.63;;;7.80;99.90;;;;;;4915312;29;20206;-67
2022/02/13 14:00:58;;;;;;;4.25;3.95;;;7.80;99.90;;;;;;4908111;29;20234;-69
2022/02/13 14:03:25;;;;;;;4.55;4.22;;;7.80;99.90;;;;;;4912641;29;20571;-68
2022/02/13 14:05:52;;;;;;;6.65;4.88;;;7.90;99.90;;;;;;4906097;29;20207;-68
2022/02/13 14:08:18;;;;;;;17.60;10.23;;;7.90;99.90;;;;;;4906245;29;20219;-68
2022/02/13 14:10:46;;;;;;;4.25;3.95;;;7.90;99.90;;;;;;4901390;29;20699;-69
2022/02/13 14:13:14;;;;;;;10.25;8.18;;;7.90;99.90;;;;;;4903792;29;20286;-68
2022/02/13 14:15:41;;;;;;;5.45;5.05;;;7.90;99.90;;;;;;4913932;29;20314;-68
2022/02/13 14:18:08;;;;;;;6.68;5.97;;;7.90;99.90;;;;;;4914037;29;20297;-67
2022/02/13 14:20:35;;;;;;;5.35;4.85;;;7.90;99.90;;;;;;4906015;29;20227;-69
2022/02/13 14:23:01;;;;;;;12.27;9.18;;;7.90;99.90;;;;;;4910078;29;20270;-68
2022/02/13 14:25:28;;;;;;;4.53;4.13;;;7.90;99.90;;;;;;4912816;29;20349;-67
2022/02/13 14:27:56;;;;;;;6.63;6.10;;;7.90;99.90;;;;;;4916394;29;20253;-68
2022/02/13 14:30:23;;;;;;;4.68;4.22;;;7.90;99.90;;;;;;4915591;29;20726;-68
2022/02/13 14:32:50;;;;;;;6.55;5.90;;;7.90;99.90;;;;;;4912827;29;20336;-67
2022/02/13 14:35:17;;;;;;;4.35;3.78;;;7.90;99.90;;;;;;4912621;29;20318;-68
2022/02/13 14:37:49;;;;;;;4.10;3.40;;;7.90;99.90;;;;;;4915977;29;20203;-67
2022/02/13 14:40:16;;;;;;;10.23;6.65;;;7.90;99.90;;;;;;4912631;29;20266;-67
2022/02/13 14:42:43;;;;;;;5.00;4.47;;;7.80;99.90;;;;;;4914022;29;20258;-67
2022/02/13 14:45:11;;;;;;;4.00;3.70;;;7.80;99.90;;;;;;4908036;29;20279;-68
2022/02/13 14:47:38;;;;;;;4.68;4.28;;;7.80;99.90;;;;;;4908775;29;20704;-66
2022/02/13 14:50:06;;;;;;;4.30;4.00;;;7.80;99.90;;;;;;4914791;29;20687;-67
2022/02/13 14:52:33;;;;;;;9.68;8.55;;;7.80;99.90;;;;;;4916183;29;20297;-66
2022/02/13 14:54:59;;;;;;;6.20;5.68;;;7.80;99.90;;;;;;4915635;29;20290;-67
2022/02/13 14:57:26;;;;;;;7.50;6.90;;;7.80;99.90;;;;;;4913226;29;20676;-67
2022/02/13 14:59:53;;;;;;;5.50;5.00;;;7.70;99.90;;;;;;4897982;29;20208;-67
2022/02/13 15:02:21;;;;;;;5.00;4.65;;;7.70;99.90;;;;;;4915602;29;20616;-68
2022/02/13 15:04:48;;;;;;;6.40;5.53;;;7.70;99.90;;;;;;4912968;29;20247;-69
2022/02/13 15:07:14;;;;;;;18.45;12.07;;;7.60;99.90;;;;;;4916883;29;20218;-70
2022/02/13 15:09:41;;;;;;;10.05;8.30;;;7.60;99.90;;;;;;4917170;29;20230;-67
2022/02/13 15:12:09;;;;;;;20.58;11.40;;;7.60;99.90;;;;;;4915796;29;20227;-67
2022/02/13 15:14:36;;;;;;;23.15;11.57;;;7.70;99.90;;;;;;4915348;29;20262;-67
2022/02/13 15:17:02;;;;;;;4.72;4.43;;;7.60;99.90;;;;;;4914988;29;20293;-67
2022/02/13 15:19:30;;;;;;;19.25;14.20;;;7.60;99.90;;;;;;4913542;29;20266;-67
2022/02/13 15:21:57;;;;;;;9.43;6.30;;;7.50;99.90;;;;;;4915097;29;20231;-68
2022/02/13 15:24:24;;;;;;;4.35;4.05;;;7.50;99.90;;;;;;4915593;29;20210;-68
2022/02/13 15:26:50;;;;;;;6.57;5.25;;;7.40;99.90;;;;;;4914854;29;20211;-67
2022/02/13 15:29:18;;;;;;;10.48;8.18;;;7.40;99.90;;;;;;4915106;29;20273;-67
2022/02/13 15:31:44;;;;;;;7.72;4.80;;;7.30;99.90;;;;;;4913678;29;20226;-68
2022/02/13 15:34:11;;;;;;;6.07;4.70;;;7.30;99.90;;;;;;4914026;29;20617;-68
2022/02/13 15:36:39;;;;;;;7.93;6.65;;;7.20;99.90;;;;;;4913873;29;20214;-68
2022/02/13 15:39:05;;;;;;;6.07;5.63;;;7.20;99.90;;;;;;4910568;29;20206;-69
2022/02/13 15:41:32;;;;;;;3.47;3.35;;;7.20;99.90;;;;;;4912479;29;20601;-68
2022/02/13 15:44:00;;;;;;;4.85;3.78;;;7.10;99.90;;;;;;4910745;29;20214;-67
2022/02/13 15:46:27;;;;;;;3.80;3.58;;;7.10;99.90;;;;;;4911925;29;20206;-68
2022/02/13 15:48:53;;;;;;;2.88;2.78;;;7.10;99.90;;;;;;4914172;29;20609;-67
2022/02/13 15:51:20;;;;;;;3.80;3.50;;;7.10;99.90;;;;;;4912160;29;20373;-69
2022/02/13 15:53:49;;;;;;;5.95;5.50;;;7.00;99.90;;;;;;4908904;29;20282;-67
2022/02/13 15:56:15;;;;;;;5.65;4.75;;;7.00;99.90;;;;;;4914399;29;20348;-69
2022/02/13 15:58:42;;;;;;;6.43;5.80;;;6.90;99.90;;;;;;4914621;29;20675;-68
2022/02/13 16:01:08;;;;;;;6.47;5.82;;;6.90;99.90;;;;;;4914000;29;20226;-68
2022/02/13 16:03:35;;;;;;;5.55;5.15;;;6.80;99.90;;;;;;4914359;29;20273;-68
2022/02/13 16:06:02;;;;;;;5.50;4.95;;;6.80;99.90;;;;;;4913466;29;20348;-68
2022/02/13 16:08:28;;;;;;;11.70;4.68;;;6.80;99.90;;;;;;4913235;29;20575;-68
2022/02/13 16:10:56;;;;;;;3.58;3.38;;;6.80;99.90;;;;;;4913795;29;20230;-68
2022/02/13 16:13:23;;;;;;;4.90;4.40;;;6.70;99.90;;;;;;4914353;29;20638;-68
2022/02/13 16:15:50;;;;;;;6.30;4.13;;;6.60;99.90;;;;;;4912962;29;20218;-67
2022/02/13 16:18:17;;;;;;;5.65;3.92;;;6.60;99.90;;;;;;4912375;29;20211;-68
2022/02/13 16:20:44;;;;;;;7.45;4.95;;;6.60;99.90;;;;;;4913281;29;20253;-67
2022/02/13 16:25:56;;;;;;;4.20;3.70;;;6.50;99.90;;;;;;4914906;29;20225;-67
2022/02/13 16:28:23;;;;;;;5.10;4.53;;;6.50;99.90;;;;;;4914557;29;20298;-69
2022/02/13 16:30:49;;;;;;;4.35;3.80;;;6.50;99.90;;;;;;4913773;29;20723;-68
2022/02/13 16:33:16;;;;;;;4.25;3.95;;;6.40;99.90;;;;;;4914136;29;20214;-68
2022/02/13 16:35:43;;;;;;;5.75;4.00;;;6.40;99.90;;;;;;4913574;29;20335;-68
2022/02/13 16:38:09;;;;;;;5.25;4.85;;;6.30;99.90;;;;;;4914202;29;20592;-69
2022/02/13 16:40:36;;;;;;;7.93;7.18;;;6.20;99.90;;;;;;4913495;29;20700;-69
2022/02/13 16:43:04;;;;;;;5.72;4.25;;;6.10;99.90;;;;;;4913816;29;20207;-69
2022/02/13 16:45:31;;;;;;;4.22;3.80;;;6.10;99.90;;;;;;4910522;29;20211;-69
2022/02/13 16:47:58;;;;;;;4.82;4.22;;;6.00;99.90;;;;;;4912739;29;20644;-68
2022/02/13 16:50:25;;;;;;;4.53;3.40;;;6.00;99.90;;;;;;4902326;29;20235;-69
2022/02/13 16:52:51;;;;;;;4.30;4.03;;;5.90;99.90;;;;;;4913264;29;20266;-68
2022/02/13 16:55:18;;;;;;;3.80;3.60;;;5.80;99.90;;;;;;4910434;29;20676;-68
2022/02/13 16:57:44;;;;;;;4.53;3.20;;;5.80;99.90;;;;;;4902300;29;20215;-69
2022/02/13 17:00:15;;;;;;;6.35;5.10;;;5.80;99.90;;;;;;4910210;29;20281;-68
2022/02/13 17:02:42;;;;;;;5.03;4.53;;;5.70;99.90;;;;;;4914183;29;20281;-68
2022/02/13 17:05:10;;;;;;;6.85;6.30;;;5.70;99.90;;;;;;4912028;29;20550;-68
2022/02/13 17:07:36;;;;;;;5.78;5.28;;;5.70;99.90;;;;;;4911501;29;20262;-70
2022/02/13 17:10:03;;;;;;;5.82;4.40;;;5.70;99.90;;;;;;4912596;29;20234;-69
2022/02/13 17:12:30;;;;;;;4.65;4.28;;;5.60;99.90;;;;;;4913571;29;20621;-69
2022/02/13 17:14:57;;;;;;;6.10;5.40;;;5.60;99.90;;;;;;4913873;29;20282;-69
2022/02/13 17:17:25;;;;;;;5.43;4.97;;;5.60;99.90;;;;;;4903442;29;20207;-69
2022/02/13 17:19:51;;;;;;;8.35;6.65;;;5.50;99.90;;;;;;4911238;29;20526;-68
2022/02/13 17:22:19;;;;;;;4.28;3.92;;;5.50;99.90;;;;;;4909234;29;20222;-68
2022/02/13 17:24:47;;;;;;;4.80;4.07;;;5.50;99.90;;;;;;4916262;29;20221;-67
2022/02/13 17:27:14;;;;;;;4.95;4.53;;;5.40;99.90;;;;;;4914821;29;20210;-68
2022/02/13 17:29:41;;;;;;;5.85;5.40;;;5.40;99.90;;;;;;4911163;29;20213;-68
2022/02/13 17:32:08;;;;;;;5.47;4.97;;;5.40;99.90;;;;;;4914127;29;20603;-68
2022/02/13 17:34:36;;;;;;;5.60;5.10;;;5.40;99.90;;;;;;4911673;29;20215;-68
2022/02/13 17:37:05;;;;;;;5.95;5.35;;;5.40;99.90;;;;;;4913551;29;20218;-69
2022/02/13 17:39:32;;;;;;;6.25;5.70;;;5.30;99.90;;;;;;4913511;29;20203;-67
2022/02/13 17:41:59;;;;;;;4.20;4.00;;;5.30;99.90;;;;;;4922536;29;20234;-69
2022/02/13 17:44:26;;;;;;;7.03;6.43;;;5.30;99.90;;;;;;4934212;29;20277;-68
2022/02/13 17:46:54;;;;;;;12.48;8.65;;;5.30;99.90;;;;;;4927676;29;20210;-66
2022/02/13 17:49:21;;;;;;;5.57;5.07;;;5.20;99.90;;;;;;4923540;29;20716;-68
2022/02/13 17:51:49;;;;;;;8.38;5.90;;;5.30;99.90;;;;;;4920084;29;20281;-68
2022/02/13 17:54:15;;;;;;;5.78;5.13;;;5.30;99.90;;;;;;4930060;29;20213;-68
2022/02/13 17:56:42;;;;;;;5.68;5.22;;;5.20;99.90;;;;;;4922993;29;20636;-68
2022/02/13 17:59:09;;;;;;;8.38;7.40;;;5.20;99.90;;;;;;4914034;29;20645;-68
2022/02/13 18:01:36;;;;;;;6.38;5.60;;;5.20;99.90;;;;;;4913069;29;20302;-68
2022/02/13 18:04:03;;;;;;;6.57;5.95;;;5.30;99.90;;;;;;4912563;29;20207;-68
2022/02/13 18:06:30;;;;;;;14.85;8.15;;;5.20;99.90;;;;;;4915329;29;20203;-68
2022/02/13 18:08:58;;;;;;;6.45;4.47;;;5.30;99.90;;;;;;4911627;29;20207;-68